Time;durP1;ratioP1;P1;durP2;ratioP2;P2;SDS_P1;SDS_P2;PMS_P1;PMS_P2;Temp;Humidity;BMP_temperature;BMP_pressure;BME280_temperature;BME280_humidity;BME280_pressure;Samples;Min_cycle;Max_cycle;Signal;HPM_P1;HPM_P2
2024/02/17 00:00:20;;;;;;;;;34.33;26.33;;;;;6.84;81.25;100673.27;114307;242;160620;-51
2024/02/17 00:03:17;;;;;;;;;31.00;24.00;;;;;6.83;81.32;100669.96;114486;243;39626;-53
2024/02/17 00:05:51;;;;;;;;;27.00;21.50;;;;;6.81;81.18;100669.08;114370;242;161440;-53
2024/02/17 00:08:25;;;;;;;;;34.50;27.00;;;;;6.77;81.27;100668.48;114417;243;39575;-53
2024/02/17 00:10:59;;;;;;;;;32.00;25.00;;;;;6.75;81.19;100664.94;114520;243;40814;-53
2024/02/17 00:13:32;;;;;;;;;37.00;28.25;;;;;6.74;81.50;100666.84;114254;242;161575;-54
2024/02/17 00:16:07;;;;;;;;;39.33;30.00;;;;;6.74;81.47;100665.04;114608;243;40044;-54
2024/02/17 00:18:41;;;;;;;;;32.25;24.75;;;;;6.73;81.74;100662.95;114284;243;161549;-51
2024/02/17 00:21:15;;;;;;;;;34.25;24.50;;;;;6.72;81.78;100657.70;114510;243;39590;-52
2024/02/17 00:23:49;;;;;;;;;36.00;28.00;;;;;6.70;81.59;100657.44;114399;242;161685;-53
2024/02/17 00:26:23;;;;;;;;;43.50;32.00;;;;;6.69;81.70;100658.06;114435;243;39357;-50
2024/02/17 00:28:57;;;;;;;;;27.25;20.00;;;;;6.68;81.85;100658.48;114560;243;39970;-54
2024/02/17 00:31:31;;;;;;;;;35.33;24.00;;;;;6.67;82.07;100658.25;114190;242;160758;-54
2024/02/17 00:34:05;;;;;;;;;38.50;30.00;;;;;6.68;82.18;100659.25;114545;243;39536;-54
2024/02/17 00:36:39;;;;;;;;;31.00;21.50;;;;;6.63;82.10;100659.52;114246;242;160839;-51
2024/02/17 00:39:12;;;;;;;;;26.50;22.50;;;;;6.62;82.07;100658.75;114264;243;41509;-51
2024/02/17 00:41:47;;;;;;;;;38.00;28.50;;;;;6.58;82.17;100658.14;114136;241;160801;-51
2024/02/17 00:44:21;;;;;;;;;35.00;26.75;;;;;6.59;82.26;100657.80;114392;243;39617;-51
2024/02/17 00:46:54;;;;;;;;;25.25;20.00;;;;;6.56;82.26;100658.64;114566;243;39337;-51
2024/02/17 00:49:28;;;;;;;;;32.33;23.00;;;;;6.57;82.33;100660.13;114214;241;161502;-51
2024/02/17 00:52:03;;;;;;;;;33.33;24.67;;;;;6.61;82.31;100658.73;114575;243;40708;-53
2024/02/17 00:54:36;;;;;;;;;39.75;30.00;;;;;6.61;82.46;100659.39;114294;241;161867;-53
2024/02/17 00:57:10;;;;;;;;;40.67;30.00;;;;;6.66;82.42;100661.06;114528;243;41069;-51
2024/02/17 00:59:44;;;;;;;;;26.00;21.50;;;;;6.72;82.54;100656.93;114401;241;161688;-50
2024/02/17 01:02:18;;;;;;;;;31.00;23.00;;;;;6.79;82.59;100657.89;114439;243;39546;-50
2024/02/17 01:04:52;;;;;;;;;32.50;25.25;;;;;6.83;82.59;100649.23;114567;243;40025;-51
2024/02/17 01:07:26;;;;;;;;;43.67;32.00;;;;;6.86;82.59;100649.80;114203;241;161484;-51
2024/02/17 01:09:59;;;;;;;;;33.67;25.67;;;;;6.87;82.73;100651.52;114587;243;39341;-50
2024/02/17 01:12:33;;;;;;;;;40.33;30.00;;;;;6.91;82.80;100646.98;114339;240;160847;-51
2024/02/17 01:15:09;;;;;;;;;34.75;26.75;;;;;6.93;82.82;100648.52;114470;243;40248;-51
2024/02/17 01:17:43;;;;;;;;;38.75;27.50;;;;;6.91;82.57;100646.07;114398;243;161352;-52
2024/02/17 01:20:17;;;;;;;;;36.00;27.33;;;;;6.90;82.73;100645.02;114344;243;40520;-51
2024/02/17 01:22:50;;;;;;;;;37.50;29.00;;;;;6.90;82.71;100641.14;114569;243;39737;-53
2024/02/17 01:25:25;;;;;;;;;30.50;23.25;;;;;6.93;82.72;100641.59;114220;241;162077;-53
2024/02/17 01:27:59;;;;;;;;;30.00;23.00;;;;;6.95;82.60;100638.11;114562;243;40450;-50
2024/02/17 01:30:33;;;;;;;;;30.50;22.25;;;;;6.96;82.71;100632.30;114243;241;162030;-50
2024/02/17 01:33:07;;;;;;;;;37.50;28.25;;;;;7.00;82.71;100630.20;114467;243;39378;-53
2024/02/17 01:35:41;;;;;;;;;36.00;28.00;;;;;7.07;82.74;100630.17;114423;241;161653;-53
2024/02/17 01:38:15;;;;;;;;;35.50;26.75;;;;;7.11;82.72;100627.44;114367;243;40872;-51
2024/02/17 01:40:49;;;;;;;;;37.00;29.00;;;;;7.15;82.66;100624.87;114588;243;39348;-51
2024/02/17 01:43:23;;;;;;;;;38.50;29.00;;;;;7.16;82.68;100619.02;114174;241;160962;-55
2024/02/17 01:45:57;;;;;;;;;42.75;30.00;;;;;7.17;82.42;100616.24;114630;243;40350;-55
2024/02/17 01:48:32;;;;;;;;;27.33;21.33;;;;;7.17;82.75;100617.63;114348;241;161295;-52
2024/02/17 01:51:11;;;;;;;;;39.50;28.00;;;;;7.13;82.76;100617.20;114488;243;40121;-52
2024/02/17 01:53:46;;;;;;;;;34.67;27.33;;;;;7.14;82.69;100616.78;114465;241;160842;-50
2024/02/17 01:56:21;;;;;;;;;34.50;26.50;;;;;7.13;82.58;100614.52;114644;243;40831;-54
2024/02/17 01:58:56;;;;;;;;;37.33;27.33;;;;;7.11;82.72;100618.11;114604;243;39314;-54
2024/02/17 02:01:31;;;;;;;;;24.00;20.00;;;;;7.12;82.76;100612.46;114409;241;161326;-53
2024/02/17 02:04:05;;;;;;;;;29.75;23.50;;;;;7.13;82.74;100613.78;114574;243;40961;-53
2024/02/17 02:06:42;;;;;;;;;28.00;21.67;;;;;7.14;82.67;100617.99;114372;241;161393;-54
2024/02/17 02:09:23;;;;;;;;;26.75;22.00;;;;;7.12;82.95;100613.88;114527;243;41087;-53
2024/02/17 02:11:57;;;;;;;;;24.50;19.75;;;;;7.17;82.91;100611.80;114389;241;162440;-53
2024/02/17 02:14:32;;;;;;;;;32.50;23.50;;;;;7.23;82.99;100610.92;114465;243;39757;-53
2024/02/17 02:17:06;;;;;;;;;37.00;28.00;;;;;7.25;82.98;100609.99;114575;243;41072;-54
2024/02/17 02:19:40;;;;;;;;;26.75;20.50;;;;;7.28;82.91;100605.61;114298;241;161519;-55
2024/02/17 02:22:14;;;;;;;;;38.75;29.50;;;;;7.33;82.94;100606.46;114580;243;40292;-55
2024/02/17 02:24:49;;;;;;;;;39.00;29.00;;;;;7.37;82.91;100606.00;114372;241;160790;-55
2024/02/17 02:27:23;;;;;;;;;36.00;27.75;;;;;7.38;82.84;100605.91;114568;243;40451;-52
2024/02/17 02:29:58;;;;;;;;;32.00;25.50;;;;;7.37;82.96;100601.90;114396;243;160936;-51
2024/02/17 02:32:32;;;;;;;;;35.00;28.00;;;;;7.35;83.02;100599.95;114502;243;40636;-54
2024/02/17 02:35:07;;;;;;;;;35.50;26.00;;;;;7.36;82.98;100599.65;114585;243;40610;-53
2024/02/17 02:37:41;;;;;;;;;33.00;24.50;;;;;7.38;83.02;100597.64;114374;241;160426;-50
2024/02/17 02:40:15;;;;;;;;;34.00;26.00;;;;;7.38;83.00;100592.47;114560;243;39932;-50
2024/02/17 02:42:49;;;;;;;;;29.67;21.33;;;;;7.36;83.31;100596.46;114446;241;164211;-54
2024/02/17 02:45:23;;;;;;;;;40.00;31.00;;;;;7.40;83.16;100591.47;114612;243;40683;-55
2024/02/17 02:47:57;;;;;;;;;34.00;26.33;;;;;7.45;83.12;100592.82;114414;241;161674;-52
2024/02/17 02:50:31;;;;;;;;;30.00;22.00;;;;;7.48;83.27;100588.29;114468;243;39954;-52
2024/02/17 02:53:06;;;;;;;;;36.75;27.25;;;;;7.47;83.30;100585.56;114568;243;39892;-51
2024/02/17 02:55:40;;;;;;;;;32.00;23.25;;;;;7.51;83.30;100584.56;114357;241;161247;-50
2024/02/17 02:58:14;;;;;;;;;38.50;28.00;;;;;7.52;83.42;100587.92;114556;243;40627;-53
2024/02/17 03:00:48;;;;;;;;;38.33;28.00;;;;;7.54;83.38;100588.36;114404;241;161370;-54
2024/02/17 03:03:22;;;;;;;;;38.00;28.00;;;;;7.58;83.32;100586.66;114545;243;39862;-50
2024/02/17 03:05:56;;;;;;;;;36.75;26.50;;;;;7.57;83.44;100586.93;114380;241;161171;-50
2024/02/17 03:08:31;;;;;;;;;34.50;26.00;;;;;7.57;83.33;100587.13;114464;243;39519;-53
2024/02/17 03:11:06;;;;;;;;;26.00;21.00;;;;;7.56;83.44;100589.08;114552;243;39421;-55
2024/02/17 03:13:40;;;;;;;;;29.25;23.00;;;;;7.54;83.30;100586.79;114128;242;160962;-53
2024/02/17 03:16:24;;;;;;;;;40.00;28.00;;;;;7.51;83.50;100591.63;114552;243;39805;-52
2024/02/17 03:18:58;;;;;;;;;28.00;22.00;;;;;7.53;83.50;100589.04;114252;241;161746;-55
2024/02/17 03:21:32;;;;;;;;;34.00;24.00;;;;;7.57;83.39;100591.49;114514;243;39959;-52
2024/02/17 03:24:06;;;;;;;;;32.00;23.50;;;;;7.54;83.52;100593.08;114354;241;161647;-52
2024/02/17 03:26:41;;;;;;;;;38.00;28.00;;;;;7.58;83.51;100595.67;114454;243;39922;-54
2024/02/17 03:29:17;;;;;;;;;33.00;25.50;;;;;7.59;83.60;100590.73;114573;243;39554;-55
2024/02/17 03:31:52;;;;;;;;;21.50;18.00;;;;;7.61;83.61;100596.18;114274;243;39580;-59
2024/02/17 03:34:25;;;;;;;;;30.75;22.50;;;;;7.64;83.67;100595.89;114550;243;39798;-54
2024/02/17 03:37:00;;;;;;;;;32.33;25.33;;;;;7.63;83.77;100593.64;114273;241;160966;-54
2024/02/17 03:39:33;;;;;;;;;29.00;23.00;;;;;7.62;83.83;100591.78;114522;243;39852;-54
2024/02/17 03:42:08;;;;;;;;;29.33;23.33;;;;;7.62;83.99;100588.89;114371;241;160877;-50
2024/02/17 03:44:42;;;;;;;;;33.00;25.00;;;;;7.64;84.12;100592.05;114440;243;41202;-50
2024/02/17 03:47:17;;;;;;;;;30.00;21.00;;;;;7.66;84.49;100594.61;114551;243;40842;-54
2024/02/17 03:49:51;;;;;;;;;30.00;24.00;;;;;7.61;85.04;100597.16;114276;244;39592;-54
2024/02/17 03:52:24;;;;;;;;;30.00;23.00;;;;;7.63;85.22;100596.72;114238;244;39814;-54
2024/02/17 03:54:58;;;;;;;;;26.67;19.33;;;;;7.62;85.62;100596.95;114142;241;162666;-54
2024/02/17 03:57:32;;;;;;;;;29.00;23.00;;;;;7.62;85.95;100596.80;114522;243;39989;-54
2024/02/17 04:00:10;;;;;;;;;30.67;23.00;;;;;7.63;86.20;100601.53;114343;242;162132;-54
2024/02/17 04:02:45;;;;;;;;;31.00;23.25;;;;;7.65;86.23;100598.98;114243;244;39611;-51
2024/02/17 04:05:19;;;;;;;;;37.00;25.75;;;;;7.72;86.55;100605.07;114265;244;41842;-51
2024/02/17 04:07:53;;;;;;;;;29.00;21.00;;;;;7.77;86.63;100599.02;114324;244;41658;-50
2024/02/17 04:10:27;;;;;;;;;24.50;20.00;;;;;7.77;86.75;100599.90;114260;244;39728;-50
2024/02/17 04:13:22;;;;;;;;;30.00;23.00;;;;;7.77;86.99;100597.61;113792;242;161915;-50
2024/02/17 04:16:16;;;;;;;;;21.50;16.75;;;;;7.73;87.09;100597.04;114581;243;39221;-54
2024/02/17 04:18:51;;;;;;;;;25.00;20.00;;;;;7.73;87.32;100598.35;114330;241;161498;-50
2024/02/17 04:21:25;;;;;;;;;28.00;19.00;;;;;7.70;87.45;100600.42;114542;243;40270;-53
2024/02/17 04:23:59;;;;;;;;;31.25;23.25;;;;;7.71;87.57;100603.72;114376;241;161814;-53
2024/02/17 04:26:33;;;;;;;;;26.00;20.00;;;;;7.73;87.64;100601.52;114450;243;39318;-53
2024/02/17 04:29:07;;;;;;;;;28.50;22.25;;;;;7.76;87.85;100606.25;114543;243;39134;-53
2024/02/17 04:31:41;;;;;;;;;19.00;15.00;;;;;7.79;87.92;100601.62;114207;241;160765;-50
2024/02/17 04:34:15;;;;;;;;;33.00;23.67;;;;;7.80;88.04;100608.64;114557;243;39306;-50
2024/02/17 04:36:49;;;;;;;;;20.25;15.50;;;;;7.81;88.18;100605.05;114248;241;161440;-51
2024/02/17 04:39:23;;;;;;;;;27.75;21.75;;;;;7.85;88.45;100604.40;114495;243;39338;-51
2024/02/17 04:41:57;;;;;;;;;26.00;19.00;;;;;7.90;88.45;100603.48;114386;241;161685;-53
2024/02/17 04:44:31;;;;;;;;;25.00;18.00;;;;;7.92;88.64;100604.52;114415;243;39652;-53
2024/02/17 04:47:08;;;;;;;;;24.00;18.00;;;;;7.92;88.68;100606.46;114588;243;41339;-50
2024/02/17 04:49:42;;;;;;;;;23.00;17.25;;;;;7.98;88.81;100608.32;114225;241;161467;-50
2024/02/17 04:52:16;;;;;;;;;28.00;22.00;;;;;8.03;88.79;100611.89;114600;243;39352;-50
2024/02/17 04:54:50;;;;;;;;;21.75;17.00;;;;;8.08;88.89;100612.43;114275;241;161653;-50
2024/02/17 04:57:24;;;;;;;;;21.00;17.00;;;;;8.15;89.00;100615.72;114530;243;41314;-53
2024/02/17 04:59:58;;;;;;;;;32.25;22.50;;;;;8.22;89.06;100619.39;114420;241;162023;-54
2024/02/17 05:02:32;;;;;;;;;20.00;16.00;;;;;8.29;89.13;100620.29;114373;243;39944;-50
2024/02/17 05:05:07;;;;;;;;;26.50;21.50;;;;;8.38;89.42;100623.66;114603;243;42573;-50
2024/02/17 05:07:43;;;;;;;;;29.00;22.00;;;;;8.44;89.17;100625.33;114243;241;161484;-54
2024/02/17 05:10:17;;;;;;;;;28.67;21.67;;;;;8.49;89.16;100621.89;114633;243;39493;-54
2024/02/17 05:12:52;;;;;;;;;21.25;16.00;;;;;8.52;89.18;100631.21;114293;241;161270;-52
2024/02/17 05:15:26;;;;;;;;;24.00;19.00;;;;;8.58;89.23;100628.66;114507;243;39485;-51
2024/02/17 05:18:00;;;;;;;;;22.25;18.00;;;;;8.63;89.33;100625.98;114371;241;161863;-53
2024/02/17 05:20:34;;;;;;;;;24.50;19.25;;;;;8.67;89.14;100630.02;114375;243;40438;-53
2024/02/17 05:23:09;;;;;;;;;25.50;19.50;;;;;8.70;89.28;100634.36;114594;243;40003;-53
2024/02/17 05:25:42;;;;;;;;;25.25;21.00;;;;;8.74;89.45;100643.98;114158;241;161614;-54
2024/02/17 05:28:16;;;;;;;;;22.50;18.00;;;;;8.75;89.56;100645.10;114548;243;39180;-49
2024/02/17 05:30:53;;;;;;;;;22.00;18.00;;;;;8.69;89.61;100649.69;114225;241;161648;-49
2024/02/17 05:33:27;;;;;;;;;22.50;17.25;;;;;8.67;89.79;100648.86;114491;243;39338;-49
2024/02/17 05:36:01;;;;;;;;;20.75;16.50;;;;;8.70;89.97;100647.78;114360;241;161745;-49
2024/02/17 05:38:34;;;;;;;;;29.33;21.33;;;;;8.76;90.11;100649.27;114371;243;39664;-51
2024/02/17 05:41:09;;;;;;;;;21.50;16.50;;;;;8.72;90.23;100656.35;114565;243;39921;-50
2024/02/17 05:43:43;;;;;;;;;28.00;19.00;;;;;8.78;90.48;100653.00;114151;241;162025;-49
2024/02/17 05:46:17;;;;;;;;;23.25;17.75;;;;;8.79;90.63;100657.52;114570;243;40436;-52
2024/02/17 05:48:51;;;;;;;;;25.50;20.00;;;;;8.84;90.93;100654.14;114219;241;162788;-51
2024/02/17 05:51:25;;;;;;;;;32.00;24.00;;;;;8.85;90.87;100658.35;114524;243;38975;-54
2024/02/17 05:53:59;;;;;;;;;33.33;26.00;;;;;8.87;90.88;100656.41;114400;241;161858;-54
2024/02/17 05:56:33;;;;;;;;;28.00;22.00;;;;;8.89;90.98;100663.45;114394;243;39658;-53
2024/02/17 05:59:06;;;;;;;;;30.75;23.00;;;;;8.90;91.04;100663.35;114555;243;41052;-54
2024/02/17 06:01:40;;;;;;;;;30.00;23.00;;;;;8.85;91.69;100667.61;114146;241;161467;-54
2024/02/17 06:04:15;;;;;;;;;31.50;23.25;;;;;8.86;91.65;100671.64;114582;243;39342;-53
2024/02/17 06:06:48;;;;;;;;;25.00;20.00;;;;;8.87;91.55;100672.24;114254;241;161677;-51
2024/02/17 06:09:22;;;;;;;;;29.00;22.00;;;;;8.86;91.74;100670.23;114488;243;39966;-50
2024/02/17 06:11:56;;;;;;;;;27.00;20.50;;;;;8.85;91.64;100668.01;114391;243;162202;-49
2024/02/17 06:14:30;;;;;;;;;23.00;18.00;;;;;8.89;91.79;100670.80;114344;243;38929;-49
2024/02/17 06:17:07;;;;;;;;;23.00;17.33;;;;;8.88;91.94;100674.14;114564;243;39474;-53
2024/02/17 06:22:29;;;;;;;;;20.50;16.00;;;;;8.99;92.65;100680.70;114559;243;39788;-53
2024/02/17 06:25:02;;;;;;;;;26.00;19.00;;;;;9.03;92.73;100681.13;114194;241;161707;-53
2024/02/17 06:27:36;;;;;;;;;27.50;18.25;;;;;9.07;92.87;100686.75;114564;243;39903;-53
2024/02/17 06:30:14;;;;;;;;;28.33;22.33;;;;;9.06;92.87;100689.42;114309;241;161968;-53
2024/02/17 06:32:49;;;;;;;;;32.50;21.50;;;;;9.01;92.92;100690.48;114445;243;39776;-50
2024/02/17 06:35:23;;;;;;;;;32.50;24.00;;;;;9.04;93.03;100693.56;114581;243;39812;-50
2024/02/17 06:37:57;;;;;;;;;24.00;19.00;;;;;9.10;93.01;100695.02;114284;243;40146;-53
2024/02/17 06:40:31;;;;;;;;;23.50;19.00;;;;;9.12;93.11;100699.51;114580;243;40424;-52
2024/02/17 06:43:05;;;;;;;;;31.50;24.00;;;;;9.14;93.45;100700.88;114451;241;161631;-51
2024/02/17 06:45:39;;;;;;;;;25.50;20.25;;;;;9.21;93.54;100702.37;114586;243;40160;-50
2024/02/17 06:48:13;;;;;;;;;28.00;19.50;;;;;9.25;93.57;100703.05;114477;241;161719;-50
2024/02/17 06:50:47;;;;;;;;;32.00;22.25;;;;;9.26;93.55;100709.95;114584;243;39647;-50
2024/02/17 06:53:21;;;;;;;;;28.00;23.00;;;;;9.25;93.50;100715.94;114559;243;39465;-53
2024/02/17 06:55:55;;;;;;;;;31.00;23.33;;;;;9.24;93.42;100710.98;114209;244;41285;-53
2024/02/17 06:58:29;;;;;;;;;31.25;23.00;;;;;9.29;93.74;100713.16;114276;244;39766;-53
2024/02/17 07:01:03;;;;;;;;;26.25;19.25;;;;;9.30;93.90;100714.67;114110;242;161657;-54
2024/02/17 07:03:37;;;;;;;;;34.00;24.25;;;;;9.38;94.07;100718.16;114283;244;39939;-53
2024/02/17 07:06:16;;;;;;;;;37.75;28.00;;;;;9.40;93.96;100717.27;114087;244;163023;-53
2024/02/17 07:08:51;;;;;;;;;29.25;22.00;;;;;9.45;94.10;100717.79;114245;244;40327;-49
2024/02/17 07:11:25;;;;;;;;;29.67;21.00;;;;;9.47;94.22;100721.29;114275;244;39909;-49
2024/02/17 07:13:59;;;;;;;;;21.67;17.33;;;;;9.51;94.16;100721.80;114303;244;39359;-49
2024/02/17 07:16:33;;;;;;;;;31.00;22.00;;;;;9.54;94.30;100731.27;114255;244;39673;-50
2024/02/17 07:19:06;;;;;;;;;39.00;27.00;;;;;9.57;94.37;100731.38;114092;242;161859;-50
2024/02/17 07:21:40;;;;;;;;;26.75;20.00;;;;;9.59;94.32;100734.02;114238;244;39358;-50
2024/02/17 07:24:14;;;;;;;;;30.00;23.00;;;;;9.63;94.46;100741.77;114106;242;162862;-50
2024/02/17 07:26:50;;;;;;;;;34.50;26.00;;;;;9.66;94.62;100743.61;114268;244;40320;-53
2024/02/17 07:29:24;;;;;;;;;33.00;25.00;;;;;9.69;94.85;100745.38;114272;244;40664;-54
2024/02/17 07:31:59;;;;;;;;;32.33;24.00;;;;;9.68;94.92;100746.43;114340;244;39959;-53
2024/02/17 07:34:34;;;;;;;;;26.75;20.75;;;;;9.64;94.94;100745.80;114511;243;40880;-53
2024/02/17 07:37:08;;;;;;;;;36.50;27.00;;;;;9.63;95.05;100745.20;114286;241;161683;-51
2024/02/17 07:39:43;;;;;;;;;35.50;27.00;;;;;9.67;95.00;100743.50;114538;243;40511;-51
2024/02/17 07:42:17;;;;;;;;;28.67;21.33;;;;;9.68;95.03;100747.61;114333;242;162316;-51
2024/02/17 07:44:51;;;;;;;;;31.50;23.50;;;;;9.67;95.11;100749.78;114251;244;39761;-50
2024/02/17 07:47:26;;;;;;;;;29.00;21.50;;;;;9.73;95.21;100751.05;114255;244;39825;-50
2024/02/17 07:50:03;;;;;;;;;31.25;26.00;;;;;9.77;95.21;100753.98;114292;244;41459;-51
2024/02/17 07:52:37;;;;;;;;;32.00;23.00;;;;;9.74;95.47;100752.41;114225;244;40072;-49
2024/02/17 07:55:11;;;;;;;;;25.75;20.25;;;;;9.74;95.47;100756.45;114179;240;162044;-49
2024/02/17 07:57:45;;;;;;;;;38.00;29.00;;;;;9.78;95.62;100756.36;114549;243;40157;-51
2024/02/17 08:00:21;;;;;;;;;28.00;21.25;;;;;9.78;95.73;100763.21;114332;241;161891;-52
2024/02/17 08:02:55;;;;;;;;;30.00;23.00;;;;;9.83;95.72;100765.35;114448;243;39540;-51
2024/02/17 08:05:29;;;;;;;;;32.25;24.50;;;;;9.91;95.90;100765.65;114534;243;40305;-51
2024/02/17 08:08:04;;;;;;;;;33.00;24.33;;;;;9.98;95.77;100774.77;114213;244;40520;-53
2024/02/17 08:10:38;;;;;;;;;33.00;25.00;;;;;10.00;95.84;100775.19;114278;243;39848;-53
2024/02/17 08:13:12;;;;;;;;;36.67;29.00;;;;;10.06;95.81;100778.48;114174;241;161893;-51
2024/02/17 08:15:45;;;;;;;;;32.00;22.25;;;;;10.05;95.89;100784.71;114499;243;39592;-50
2024/02/17 08:18:20;;;;;;;;;39.25;29.00;;;;;10.08;95.95;100786.04;114350;241;162839;-53
2024/02/17 08:20:56;;;;;;;;;32.00;23.50;;;;;10.12;96.00;100788.45;114440;243;41156;-53
2024/02/17 08:23:30;;;;;;;;;32.00;23.00;;;;;10.15;96.00;100788.49;114600;243;39807;-50
2024/02/17 08:26:05;;;;;;;;;28.67;22.00;;;;;10.21;96.09;100787.39;114292;243;41223;-52
2024/02/17 08:28:41;;;;;;;;;38.25;27.25;;;;;10.23;96.16;100795.27;114611;243;39311;-51
2024/02/17 08:31:15;;;;;;;;;31.00;24.00;;;;;10.26;96.29;100798.51;114209;242;162040;-54
2024/02/17 08:33:49;;;;;;;;;32.50;26.00;;;;;10.33;96.42;100804.58;114258;244;40469;-55
2024/02/17 08:36:24;;;;;;;;;35.50;27.00;;;;;10.34;96.41;100804.58;114138;242;161760;-51
2024/02/17 08:38:59;;;;;;;;;37.33;28.00;;;;;10.45;96.41;100808.70;114231;244;40074;-49
2024/02/17 08:41:34;;;;;;;;;39.00;29.00;;;;;10.48;96.39;100808.31;114111;242;162254;-53
2024/02/17 08:44:08;;;;;;;;;38.00;28.00;;;;;10.48;96.38;100812.71;114226;244;40150;-53
2024/02/17 08:46:43;;;;;;;;;29.00;22.00;;;;;10.49;96.33;100810.86;114277;244;39736;-54
2024/02/17 08:49:17;;;;;;;;;41.75;28.50;;;;;10.50;96.35;100815.30;114110;242;162072;-54
2024/02/17 08:51:52;;;;;;;;;33.00;25.25;;;;;10.48;96.61;100816.66;114256;244;40587;-51
2024/02/17 08:54:26;;;;;;;;;38.00;29.00;;;;;10.49;96.45;100819.38;114098;242;161849;-51
2024/02/17 08:57:01;;;;;;;;;32.33;25.33;;;;;10.50;96.57;100818.36;114265;244;39243;-50
2024/02/17 08:59:37;;;;;;;;;28.00;21.00;;;;;10.49;96.89;100820.42;114127;242;161995;-49
2024/02/17 09:02:16;;;;;;;;;40.00;28.00;;;;;10.51;96.73;100819.42;114198;244;40600;-52
2024/02/17 09:04:51;;;;;;;;;28.75;21.50;;;;;10.53;96.82;100819.33;114272;244;40772;-54
2024/02/17 09:07:26;;;;;;;;;32.50;25.00;;;;;10.54;96.67;100822.02;114089;242;161911;-54
2024/02/17 09:10:00;;;;;;;;;26.50;20.00;;;;;10.58;96.68;100823.01;114261;244;40135;-54
2024/02/17 09:12:34;;;;;;;;;35.75;22.00;;;;;10.59;96.69;100824.98;114116;242;161982;-51
2024/02/17 09:15:09;;;;;;;;;27.25;20.50;;;;;10.61;96.70;100828.25;114224;244;39802;-51
2024/02/17 09:17:43;;;;;;;;;29.00;22.00;;;;;10.59;96.55;100828.44;114124;242;162099;-52
2024/02/17 09:20:17;;;;;;;;;29.50;23.50;;;;;10.54;96.71;100829.42;114230;244;40048;-51
2024/02/17 09:22:51;;;;;;;;;32.75;25.00;;;;;10.51;96.95;100836.27;114279;244;40731;-49
2024/02/17 09:25:25;;;;;;;;;27.75;21.00;;;;;10.48;96.85;100844.21;114073;242;162485;-50
2024/02/17 09:27:59;;;;;;;;;29.50;22.75;;;;;10.48;97.05;100849.04;114327;244;39735;-54
2024/02/17 09:30:34;;;;;;;;;30.75;23.25;;;;;10.48;97.09;100851.90;114144;242;161824;-53
2024/02/17 09:33:08;;;;;;;;;24.25;18.25;;;;;10.51;97.22;100849.05;114282;244;40403;-54
2024/02/17 09:35:42;;;;;;;;;33.67;24.33;;;;;10.52;97.16;100851.58;114214;244;162052;-53
2024/02/17 09:38:17;;;;;;;;;29.00;22.25;;;;;10.55;97.22;100853.39;114248;244;40036;-49
2024/02/17 09:40:51;;;;;;;;;29.33;23.00;;;;;10.57;97.24;100858.27;114360;244;39213;-50
2024/02/17 09:43:25;;;;;;;;;29.00;22.00;;;;;10.59;97.29;100860.05;114119;242;161804;-49
2024/02/17 09:46:00;;;;;;;;;29.33;22.67;;;;;10.65;97.34;100853.14;114388;244;39556;-49
2024/02/17 09:48:34;;;;;;;;;23.00;18.25;;;;;10.68;97.38;100859.44;114185;242;161925;-54
2024/02/17 09:51:12;;;;;;;;;24.00;19.00;;;;;10.66;97.46;100870.13;114335;244;39855;-54
2024/02/17 09:53:46;;;;;;;;;31.33;24.33;;;;;10.68;97.43;100876.57;114233;242;161936;-53
2024/02/17 09:56:21;;;;;;;;;31.67;24.00;;;;;10.71;97.44;100878.08;114272;244;40118;-50
2024/02/17 09:58:54;;;;;;;;;29.50;23.25;;;;;10.74;97.29;100874.10;114399;244;39432;-50
2024/02/17 10:01:28;;;;;;;;;22.67;18.00;;;;;10.76;97.52;100866.97;114152;242;161860;-51
2024/02/17 10:04:05;;;;;;;;;33.00;25.00;;;;;10.80;97.62;100870.52;114396;244;39839;-51
2024/02/17 10:06:39;;;;;;;;;26.00;19.00;;;;;10.81;97.66;100871.27;114219;241;161929;-51
2024/02/17 10:09:22;;;;;;;;;23.00;19.00;;;;;10.83;97.67;100874.16;114458;243;40973;-54
2024/02/17 10:11:57;;;;;;;;;29.50;22.50;;;;;10.85;97.34;100870.11;114446;243;161948;-49
2024/02/17 10:14:32;;;;;;;;;28.25;21.75;;;;;10.84;97.56;100873.06;114525;243;39623;-50
2024/02/17 10:17:07;;;;;;;;;30.00;24.00;;;;;10.82;97.73;100874.47;114577;243;39905;-53
2024/02/17 10:19:43;;;;;;;;;27.00;19.50;;;;;10.85;97.78;100874.11;114518;243;165568;-53
2024/02/17 10:22:17;;;;;;;;;27.00;20.50;;;;;10.90;97.83;100877.98;114615;243;38961;-51
2024/02/17 10:24:59;;;;;;;;;29.00;22.00;;;;;10.91;97.72;100876.63;114339;241;165421;-51
2024/02/17 10:27:33;;;;;;;;;26.67;21.00;;;;;10.96;97.77;100882.60;114490;243;41480;-53
2024/02/17 10:30:16;;;;;;;;;27.00;22.50;;;;;11.00;97.58;100879.33;114404;241;162619;-53
2024/02/17 10:32:50;;;;;;;;;36.00;26.50;;;;;11.02;97.59;100882.50;114527;243;39686;-48
2024/02/17 10:35:24;;;;;;;;;33.25;26.50;;;;;11.03;97.80;100884.35;114558;243;39580;-49
2024/02/17 10:37:59;;;;;;;;;25.25;20.00;;;;;11.05;97.78;100886.23;114436;243;162885;-49
2024/02/17 10:40:34;;;;;;;;;33.00;26.00;;;;;11.02;97.66;100884.12;114273;243;41174;-49
2024/02/17 10:43:08;;;;;;;;;34.00;24.25;;;;;11.05;97.83;100885.70;114442;241;162939;-51
2024/02/17 10:45:42;;;;;;;;;33.50;26.00;;;;;11.02;97.88;100887.29;114586;243;40608;-51
2024/02/17 10:48:19;;;;;;;;;37.25;27.50;;;;;11.01;97.96;100885.67;114486;241;163161;-48
2024/02/17 10:50:53;;;;;;;;;31.25;22.75;;;;;11.05;98.02;100881.89;114644;243;40177;-49
2024/02/17 10:53:37;;;;;;;;;33.50;25.00;;;;;11.06;97.95;100888.13;114583;243;40732;-53
2024/02/17 10:56:17;;;;;;;;;27.00;21.00;;;;;11.06;98.01;100888.23;114291;243;41357;-53
2024/02/17 10:58:55;;;;;;;;;34.00;26.00;;;;;11.10;98.15;100887.43;114604;243;39109;-52
2024/02/17 11:01:30;;;;;;;;;33.00;23.00;;;;;11.23;98.36;100882.96;114342;242;162017;-51
2024/02/17 11:04:05;;;;;;;;;25.00;19.00;;;;;11.44;98.36;100888.39;114597;243;39796;-51
2024/02/17 11:06:41;;;;;;;;;26.50;21.25;;;;;11.62;98.63;100888.61;114356;241;163308;-54
2024/02/17 11:09:16;;;;;;;;;26.00;22.00;;;;;11.83;98.80;100889.83;114517;243;41197;-54
2024/02/17 11:11:50;;;;;;;;;29.00;24.50;;;;;12.05;99.03;100889.35;114469;241;162298;-52
2024/02/17 11:14:44;;;;;;;;;22.00;18.00;;;;;12.31;98.95;100887.27;114497;243;40408;-53
2024/02/17 11:17:18;;;;;;;;;28.50;22.00;;;;;12.42;98.37;100889.78;114551;243;40200;-51
2024/02/17 11:20:04;;;;;;;;;22.25;18.00;;;;;12.53;98.19;100886.66;114390;241;161875;-51
2024/02/17 11:22:38;;;;;;;;;30.25;23.25;;;;;12.55;97.66;100889.48;114606;243;41587;-50
2024/02/17 11:25:24;;;;;;;;;31.00;24.00;;;;;12.57;97.44;100893.52;114269;241;161492;-50
2024/02/17 11:27:59;;;;;;;;;28.50;22.25;;;;;12.58;97.28;100893.15;114544;243;41555;-54
2024/02/17 11:30:51;;;;;;;;;31.00;25.00;;;;;12.56;97.11;100895.66;114332;241;161154;-53
2024/02/17 11:33:30;;;;;;;;;32.00;23.00;;;;;12.47;97.18;100896.05;114496;243;41775;-55
2024/02/17 11:36:07;;;;;;;;;30.00;23.00;;;;;12.49;96.73;100904.83;114379;241;162244;-55
2024/02/17 11:38:43;;;;;;;;;26.00;21.00;;;;;12.49;96.54;100909.46;114417;243;40413;-51
2024/02/17 11:41:19;;;;;;;;;26.00;21.75;;;;;12.45;96.61;100911.13;114539;243;39313;-52
2024/02/17 11:43:55;;;;;;;;;23.00;17.50;;;;;12.51;96.63;100911.30;114225;241;161759;-53
2024/02/17 11:46:29;;;;;;;;;28.00;22.00;;;;;12.60;96.57;100910.81;114590;243;39814;-53
2024/02/17 11:49:12;;;;;;;;;28.00;23.00;;;;;12.73;96.39;100913.05;114275;241;161809;-53